Hovedside
METAR-TAF:

METAR-TAF

Lufthavner :

Prinsesse Juliana internasjonale lufthavn

Sint Maarten, De nederlandske Antillene

breddegrad: 18-03N, lengdegrad: 063-07W, høyde over havet: 4 m

Gjeldene værobservasjon

Denne rapporten ble laget for 54 minutter siden, klokken 15:00 UTC
Vind 9 kt fra Vest-sørvest
Temperatur 29°C
Luftfuktighet 74%
Trykk 1013 hPa
Sikt 10 km eller mer
Spredte skyer i en høyde av 1700 ft

METAR: TNCM 201500Z 25009KT 9999 SCT017 29/24 Q1013 NOSIG

Tid: 11:54 (15:54 UTC)

Varsel

Denne rapporten ble laget for 4 timer og 31 minutter siden, klokken 11:23 UTC
Varsel gyldig fra 20. klokken 12 UTC til 21. klokken 12 UTC
Vind 10 kt fra Vest
Sikt: 10 km
Spredte skyer i en høyde av 1800 ft
regnbyger i nærheten

TAF: TNCM 201123Z 2012/2112 28010KT P6SM VCSH SCT018

Værobservasjoner og værvarsel for over 4000 flyplasser (METAR- og TAF-rapporter).

Tilgjengelige stasjoner er representert av de røde og gule prikkene på kartet.

Hold musepekeren over prikken for å se navnet på stasjonen.

Klikk så for å se værobservasjoner og -varsler.

For å forandre kartet kan du klikke på den grønne knappen med svart kryss for å zoome inn, på den grønne knappen med strek for å zoome ut, eller på de grønne pilene for å se tilstøtende kart.


METAR-TAF: